Normed Antwerpen — V2DG9 — position and weather

sailwx.info

Track history (hours):
 
Tides and Currents Weather Stations Pressure Air Temp Water Temp Dewpoint Dewpoint Depression Visibility Wind Speed Wind Dir Waves Ship Positions

Normed Antwerpen

Last reported at 2016-Feb-07 21:20 UTC. Time now 2016-Feb-11 23:19 UTC.
Position N 36°28' E 014°33'.

Length 130 m; draft 6.2 m.

Type: Ship. MMSI: 305210993.

Date/timePositionNaut miles runAvg speedWind from/ knotsBaromVisibWave heightAir tempDewpointWater temp
2016-Feb-07 21:20N 36°28' E 014°33'1012.8
2016-Feb-07 20:33N 36°28' E 014°20'1312.7
2016-Feb-07 19:33N 36°29' E 014°05'52612.5
2016-Feb-06 01:33N 37°07' E 003°09'1211.6
2016-Feb-06 00:30N 37°05' E 002°54'1411.8
2016-Feb-05 23:18N 37°03' E 002°37'38912.2
2016-Feb-04 15:33N 35°59' W 005°20'46212.4
2016-Feb-03 02:17N 30°34' W 011°53'912.6
2016-Feb-03 01:34N 30°27' W 011°60'1312.5
2016-Feb-03 00:33N 30°18' W 012°10'1412.8
2016-Feb-02 23:27N 30°07' W 012°20'1212.8
2016-Feb-02 22:33N 29°58' W 012°28'1312.8
2016-Feb-02 21:31N 29°47' W 012°37'1313.1
2016-Feb-02 20:33N 29°38' W 012°46'4013.2
2016-Feb-02 17:33N 29°06' W 013°14'1312.6
2016-Feb-02 16:33N 28°59' W 013°26'5 4.2
2016-Feb-02 15:20N 28°58' W 013°32'0 0.0
2016-Feb-02 14:28N 28°58' W 013°32'0 0.0
2016-Feb-02 05:09N 28°58' W 013°32'0 0.0
2016-Feb-02 04:33N 28°58' W 013°32'0 0.0
2016-Feb-02 03:33N 28°58' W 013°32'0 0.0
2016-Feb-02 02:26N 28°58' W 013°32'0 0.0
2016-Feb-02 01:32N 28°58' W 013°32'0 0.0
2016-Feb-02 00:13N 28°58' W 013°32'0 0.1
2016-Feb-01 23:25N 28°58' W 013°32'0 0.1
2016-Feb-01 22:28N 28°58' W 013°32'0 0.0
2016-Feb-01 21:10N 28°58' W 013°32'0 0.0
2016-Feb-01 20:30N 28°58' W 013°32'0 0.0
2016-Feb-01 19:27N 28°58' W 013°32'0 0.0
2016-Feb-01 18:33N 28°58' W 013°32'0 0.0
2016-Feb-01 17:33N 28°58' W 013°32'4 4.0
2016-Feb-01 16:33N 28°59' W 013°27'7612.7
2016-Feb-01 10:32N 30°13' W 013°05'4013.2
2016-Feb-01 07:31N 30°52' W 012°56'6013.5
2016-Feb-01 03:07N 31°50' W 012°44'3713.6
2016-Feb-01 00:23N 32°27' W 012°35'2513.7
2016-Jan-31 22:32N 32°52' W 012°30'1313.4
2016-Jan-31 21:31N 33°05' W 012°27'30513.7
2016-Jan-30 23:14N 38°05' W 011°17'1013.7
2016-Jan-30 22:33N 38°14' W 011°15'1513.9
2016-Jan-30 21:26N 38°29' W 011°12'5514.0
2016-Jan-30 17:31N 39°23' W 010°59'1414.4
2016-Jan-30 16:31N 39°38' W 010°55'1413.5
2016-Jan-30 15:28N 39°51' W 010°52'1212.6
2016-Jan-30 14:30N 40°03' W 010°49'1313.5
2016-Jan-30 13:32N 40°16' W 010°46'1514.4
2016-Jan-30 12:28N 40°31' W 010°42'1212.6
2016-Jan-30 11:31N 40°43' W 010°39'2613.1
2016-Jan-30 09:31N 41°09' W 010°32'1212.2
2016-Jan-30 08:31N 41°21' W 010°30'2612.7
2016-Jan-30 06:28N 41°46' W 010°23'1212.3
2016-Jan-30 05:31N 41°58' W 010°20'  
Track history (hours):
 
Tides and Currents Weather Stations Pressure Air Temp Water Temp Dewpoint Dewpoint Depression Visibility Wind Speed Wind Dir Waves Ship Positions

Normed Antwerpen

Last reported at 2016-Feb-07 21:20 UTC. Time now 2016-Feb-11 23:19 UTC.
Position N 36°28' E 014°33'.

Length 130 m; draft 6.2 m.

Type: Ship. MMSI: 305210993.

Date/timePositionNaut miles runAvg speedWind from/ knotsBaromVisibWave heightAir tempDewpointWater temp
2016-Feb-07 21:20N 36°28' E 014°33'1012.8
2016-Feb-07 20:33N 36°28' E 014°20'1312.7
2016-Feb-07 19:33N 36°29' E 014°05'52612.5
2016-Feb-06 01:33N 37°07' E 003°09'1211.6
2016-Feb-06 00:30N 37°05' E 002°54'1411.8
2016-Feb-05 23:18N 37°03' E 002°37'38912.2
2016-Feb-04 15:33N 35°59' W 005°20'46212.4
2016-Feb-03 02:17N 30°34' W 011°53'912.6
2016-Feb-03 01:34N 30°27' W 011°60'1312.5
2016-Feb-03 00:33N 30°18' W 012°10'1412.8
2016-Feb-02 23:27N 30°07' W 012°20'1212.8
2016-Feb-02 22:33N 29°58' W 012°28'1312.8
2016-Feb-02 21:31N 29°47' W 012°37'1313.1
2016-Feb-02 20:33N 29°38' W 012°46'4013.2
2016-Feb-02 17:33N 29°06' W 013°14'1312.6
2016-Feb-02 16:33N 28°59' W 013°26'5 4.2
2016-Feb-02 15:20N 28°58' W 013°32'0 0.0
2016-Feb-02 14:28N 28°58' W 013°32'0 0.0
2016-Feb-02 05:09N 28°58' W 013°32'0 0.0
2016-Feb-02 04:33N 28°58' W 013°32'0 0.0
2016-Feb-02 03:33N 28°58' W 013°32'0 0.0
2016-Feb-02 02:26N 28°58' W 013°32'0 0.0
2016-Feb-02 01:32N 28°58' W 013°32'0 0.0
2016-Feb-02 00:13N 28°58' W 013°32'0 0.1
2016-Feb-01 23:25N 28°58' W 013°32'0 0.1
2016-Feb-01 22:28N 28°58' W 013°32'0 0.0
2016-Feb-01 21:10N 28°58' W 013°32'0 0.0
2016-Feb-01 20:30N 28°58' W 013°32'0 0.0
2016-Feb-01 19:27N 28°58' W 013°32'0 0.0
2016-Feb-01 18:33N 28°58' W 013°32'0 0.0
2016-Feb-01 17:33N 28°58' W 013°32'4 4.0
2016-Feb-01 16:33N 28°59' W 013°27'7612.7
2016-Feb-01 10:32N 30°13' W 013°05'4013.2
2016-Feb-01 07:31N 30°52' W 012°56'6013.5
2016-Feb-01 03:07N 31°50' W 012°44'3713.6
2016-Feb-01 00:23N 32°27' W 012°35'2513.7
2016-Jan-31 22:32N 32°52' W 012°30'1313.4
2016-Jan-31 21:31N 33°05' W 012°27'30513.7
2016-Jan-30 23:14N 38°05' W 011°17'1013.7
2016-Jan-30 22:33N 38°14' W 011°15'1513.9
2016-Jan-30 21:26N 38°29' W 011°12'5514.0
2016-Jan-30 17:31N 39°23' W 010°59'1414.4
2016-Jan-30 16:31N 39°38' W 010°55'1413.5
2016-Jan-30 15:28N 39°51' W 010°52'1212.6
2016-Jan-30 14:30N 40°03' W 010°49'1313.5
2016-Jan-30 13:32N 40°16' W 010°46'1514.4
2016-Jan-30 12:28N 40°31' W 010°42'1212.6
2016-Jan-30 11:31N 40°43' W 010°39'2613.1
2016-Jan-30 09:31N 41°09' W 010°32'1212.2
2016-Jan-30 08:31N 41°21' W 010°30'2612.7
2016-Jan-30 06:28N 41°46' W 010°23'1212.3
2016-Jan-30 05:31N 41°58' W 010°20'  

Dump ship's entire track history